KEGI/EGI METAR and TAF weather

Enter ICAO airport designator
Station Type Date Time Source
KEGI METAR 2019/08/24 20:24 UTC NOAA

KEGI 242024Z AUTO 20006KT 10SM VCTS FEW018 SCT049 32/24 A2994 RMK AO2 RAB1958E18DZB18E24 SLP137 $


Station Type Date Time Source
KEGI Decoded METAR 2019/08/24 20:24 UTC NOAA

Station name not available
Aug 24, 2019 - 04:24 PM EDT / 2019.08.24 2024 UTC
Wind: from the SSW (200 degrees) at 7 MPH (6 KT):0
Visibility: 10 mile(s):0
Sky conditions: partly cloudy
Weather: thunder in the vicinity
Temperature: 89 F (32 C)
Heat index: 98.4 F (36.9 C):1
Dew Point: 75 F (24 C)
Relative Humidity: 62%
Pressure (altimeter): 29.94 in. Hg (1013 hPa)
ob: KEGI 242024Z AUTO 20006KT 10SM VCTS FEW018 SCT049 32/24 A2994 RMK AO2 RAB1958E18DZB18E24 SLP137
cycle: 20

Station Type Date Time Source
KEGI TAF 2019/08/24 01:02 UTC NOAA

TAF KEGI 240100Z 2401/2507 23006KT 9999 FEW030 BKN200 QNH2995INS
BECMG 2412/2413 30009KT 9999 FEW025 SCT200 QNH2998INS
BECMG 2417/2418 31010KT 9000 -SHRA VCTS SCT025CB SCT100 BKN200 QNH2997INS
TEMPO 2418/2421 4800 -TSRA BKN025CB
BECMG 2421/2422 27009KT 9999 NSW FEW025 SCT100 BKN200 QNH2992INS TX33/2419Z TN23/2409Z LAST NO
AMDS AFT 2406 NEXT 2609

Example: see airport list